Time;durP1;ratioP1;P1;durP2;ratioP2;P2;SDS_P1;SDS_P2;PMS_P1;PMS_P2;Temp;Humidity;BMP_temperature;BMP_pressure;BME280_temperature;BME280_humidity;BME280_pressure;Samples;Min_cycle;Max_cycle;Signal;HPM_P1;HPM_P2
2022/09/25 00:00:33;;;;;;;14.18;10.13;;;20.30;57.40;;;;;;5050537;28;20024;-79
2022/09/25 00:02:59;;;;;;;13.55;9.52;;;20.40;57.20;;;;;;5052415;28;20029;-77
2022/09/25 00:05:25;;;;;;;14.80;9.82;;;20.40;57.00;;;;;;5052605;28;20472;-77
2022/09/25 00:07:50;;;;;;;15.82;10.68;;;20.30;57.30;;;;;;5053650;28;20131;-82
2022/09/25 00:10:16;;;;;;;14.93;10.30;;;20.40;57.30;;;;;;5053319;28;20025;-76
2022/09/25 00:12:42;;;;;;;14.52;10.68;;;20.40;57.00;;;;;;5050896;28;20373;-77
2022/09/25 00:15:08;;;;;;;14.93;10.77;;;20.30;57.30;;;;;;5052555;28;20027;-76
2022/09/25 00:17:34;;;;;;;15.27;10.63;;;20.20;57.40;;;;;;5052269;28;20059;-76
2022/09/25 00:19:59;;;;;;;13.90;9.55;;;20.20;57.60;;;;;;5052442;28;20111;-76
2022/09/25 00:22:26;;;;;;;14.23;9.23;;;20.20;57.50;;;;;;5051143;28;20706;-75
2022/09/25 00:24:52;;;;;;;14.88;9.32;;;20.30;57.60;;;;;;5051533;28;20118;-84
2022/09/25 00:27:18;;;;;;;15.23;9.55;;;20.40;57.30;;;;;;5051747;28;20108;-76
2022/09/25 00:29:46;;;;;;;14.32;9.93;;;20.50;57.50;;;;;;5052832;28;20036;-76
2022/09/25 00:32:14;;;;;;;12.68;9.90;;;20.60;57.40;;;;;;5053165;28;20067;-79
2022/09/25 00:34:40;;;;;;;14.00;9.57;;;20.60;57.30;;;;;;5047802;28;20029;-76
2022/09/25 00:37:06;;;;;;;13.27;10.02;;;20.60;57.40;;;;;;5034872;28;20029;-82
2022/09/25 00:39:32;;;;;;;13.32;9.65;;;20.40;58.00;;;;;;5052787;28;20033;-76
2022/09/25 00:41:58;;;;;;;13.27;9.75;;;20.50;57.60;;;;;;5051168;28;20123;-76
2022/09/25 00:44:55;;;;;;;15.10;9.52;;;20.40;57.50;;;;;;5050368;28;20091;-76
2022/09/25 00:47:31;;;;;;;13.25;9.48;;;20.50;57.40;;;;;;5052830;28;20029;-76
2022/09/25 00:49:58;;;;;;;13.93;9.80;;;20.70;57.10;;;;;;5044931;28;20028;-75
2022/09/25 00:52:25;;;;;;;12.70;9.40;;;20.50;57.80;;;;;;5070354;28;20056;-76
2022/09/25 00:54:56;;;;;;;13.02;9.00;;;20.50;57.80;;;;;;5075598;28;20031;-75
2022/09/25 00:57:25;;;;;;;15.77;9.32;;;20.40;57.80;;;;;;5073922;28;20016;-75
2022/09/25 00:59:57;;;;;;;13.70;9.52;;;20.50;57.20;;;;;;5052700;28;20028;-76
2022/09/25 01:02:32;;;;;;;14.57;9.20;;;20.40;57.40;;;;;;5074042;28;20029;-75
2022/09/25 01:05:06;;;;;;;14.90;9.93;;;20.50;57.10;;;;;;5055485;28;20380;-75
2022/09/25 01:07:35;;;;;;;12.95;8.27;;;20.50;57.30;;;;;;5055683;28;20030;-76
2022/09/25 01:10:02;;;;;;;12.90;8.90;;;20.40;57.30;;;;;;5037560;28;20025;-75
2022/09/25 01:12:28;;;;;;;14.13;10.15;;;19.90;58.50;;;;;;5068313;28;20024;-75
2022/09/25 01:14:56;;;;;;;14.48;9.52;;;19.90;58.40;;;;;;5073546;28;20037;-76
2022/09/25 01:17:28;;;;;;;12.70;9.35;;;20.20;57.90;;;;;;5062695;28;20021;-76
2022/09/25 01:20:20;;;;;;;14.10;9.93;;;20.50;57.20;;;;;;5040822;28;20025;-75
2022/09/25 01:23:24;;;;;;;12.43;8.63;;;20.60;56.70;;;;;;5074197;28;20067;-76
2022/09/25 01:25:59;;;;;;;10.98;8.18;;;20.20;57.50;;;;;;5075425;28;20067;-77
2022/09/25 01:28:30;;;;;;;12.48;9.32;;;20.10;57.70;;;;;;5075510;28;20091;-76
2022/09/25 01:31:06;;;;;;;11.18;8.77;;;20.00;57.90;;;;;;5053593;28;20048;-84
2022/09/25 01:33:44;;;;;;;14.00;8.88;;;20.20;57.60;;;;;;5057997;28;20024;-76
2022/09/25 01:36:37;;;;;;;13.52;8.55;;;20.20;57.60;;;;;;5057646;28;20032;-78
2022/09/25 01:39:28;;;;;;;12.35;7.80;;;20.40;57.10;;;;;;5038060;28;20083;-75
2022/09/25 01:42:10;;;;;;;13.30;8.45;;;20.50;56.60;;;;;;5054493;28;20376;-77
2022/09/25 01:44:43;;;;;;;13.18;8.80;;;19.80;58.20;;;;;;5037293;28;20039;-77
2022/09/25 01:47:13;;;;;;;13.13;8.68;;;19.80;58.20;;;;;;5074999;28;20111;-77
2022/09/25 01:49:46;;;;;;;11.85;8.48;;;19.80;57.80;;;;;;5050462;28;20032;-75
2022/09/25 01:52:16;;;;;;;13.40;9.05;;;19.90;57.70;;;;;;5053418;28;20078;-75
2022/09/25 01:54:47;;;;;;;15.52;9.05;;;19.90;57.50;;;;;;5055238;28;20048;-75
2022/09/25 01:57:25;;;;;;;13.68;8.98;;;20.00;57.50;;;;;;5053284;28;20483;-76
2022/09/25 02:00:05;;;;;;;13.63;9.32;;;20.00;57.30;;;;;;5071437;28;20184;-77
2022/09/25 02:02:40;;;;;;;14.20;9.40;;;19.90;57.40;;;;;;5049525;28;20060;-76
2022/09/25 02:05:18;;;;;;;13.85;8.93;;;19.90;57.30;;;;;;5056400;28;20033;-76
2022/09/25 02:07:49;;;;;;;12.32;8.35;;;19.90;57.30;;;;;;5052975;28;20032;-76
2022/09/25 02:10:28;;;;;;;12.82;9.00;;;19.80;57.40;;;;;;5036922;28;20017;-75
2022/09/25 02:13:00;;;;;;;12.98;9.07;;;19.70;57.30;;;;;;5070286;28;20047;-75
2022/09/25 02:15:34;;;;;;;13.63;9.60;;;19.60;57.50;;;;;;5049488;28;20024;-75
2022/09/25 02:20:57;;;;;;;13.93;8.50;;;19.70;57.50;;;;;;5074913;28;20498;-75
2022/09/25 02:23:22;;;;;;;14.38;8.95;;;19.70;57.20;;;;;;5041211;28;20074;-75
2022/09/25 02:26:04;;;;;;;12.30;8.95;;;19.60;57.50;;;;;;5054596;28;20485;-75
2022/09/25 02:28:30;;;;;;;11.98;8.15;;;19.60;57.40;;;;;;5069643;28;20052;-76
2022/09/25 02:30:58;;;;;;;11.43;8.30;;;19.70;57.30;;;;;;5054998;28;20055;-78
2022/09/25 02:33:25;;;;;;;13.80;8.40;;;19.70;57.40;;;;;;5055057;28;20039;-76
2022/09/25 02:35:51;;;;;;;11.52;8.38;;;19.80;57.50;;;;;;5056866;28;20078;-81
2022/09/25 02:38:18;;;;;;;13.20;8.77;;;19.80;57.40;;;;;;5068576;28;20039;-78
2022/09/25 02:40:59;;;;;;;14.40;8.77;;;19.80;57.50;;;;;;5072154;28;20112;-76
2022/09/25 02:43:28;;;;;;;10.07;7.55;;;19.80;56.90;;;;;;5072697;28;20036;-76
2022/09/25 02:46:01;;;;;;;14.13;8.30;;;19.90;56.90;;;;;;5054104;28;20033;-76
2022/09/25 02:48:58;;;;;;;14.77;8.80;;;19.70;57.40;;;;;;5072177;28;20044;-77
2022/09/25 02:51:45;;;;;;;16.10;8.75;;;19.80;57.20;;;;;;5052359;28;20060;-77
2022/09/25 02:54:19;;;;;;;12.13;8.57;;;19.80;56.60;;;;;;5056099;28;20039;-75
2022/09/25 02:57:07;;;;;;;13.00;9.23;;;19.80;56.50;;;;;;5054831;28;20052;-81
2022/09/25 02:59:38;;;;;;;10.82;8.38;;;19.80;56.30;;;;;;5055569;28;20479;-80
2022/09/25 03:02:05;;;;;;;11.60;8.55;;;19.70;56.50;;;;;;5070553;28;20021;-81
2022/09/25 03:04:34;;;;;;;14.27;8.85;;;19.60;56.70;;;;;;5055534;28;20024;-80
2022/09/25 03:07:01;;;;;;;13.25;9.10;;;19.60;57.30;;;;;;5055671;28;20024;-79
2022/09/25 03:09:30;;;;;;;14.98;8.75;;;19.60;57.00;;;;;;5072972;28;20024;-76
2022/09/25 03:11:56;;;;;;;12.63;8.77;;;19.50;56.70;;;;;;5072976;28;20099;-75
2022/09/25 03:14:22;;;;;;;13.10;8.60;;;19.40;56.80;;;;;;5054896;28;20131;-75
2022/09/25 03:16:50;;;;;;;14.10;9.30;;;19.40;56.90;;;;;;5072915;28;20032;-75
2022/09/25 03:19:20;;;;;;;17.17;9.35;;;19.20;57.40;;;;;;5073543;28;20033;-75
2022/09/25 03:21:47;;;;;;;12.10;8.73;;;19.10;57.70;;;;;;5073124;28;20087;-75
2022/09/25 03:24:13;;;;;;;14.30;9.05;;;19.10;57.60;;;;;;5073390;28;20090;-75
2022/09/25 03:26:39;;;;;;;14.75;9.50;;;19.10;57.50;;;;;;5073670;28;20078;-75
2022/09/25 03:29:05;;;;;;;12.48;9.25;;;19.20;57.40;;;;;;5054472;28;20028;-77
2022/09/25 03:31:32;;;;;;;11.07;7.88;;;19.20;57.30;;;;;;5073150;28;20032;-75
2022/09/25 03:33:59;;;;;;;11.52;7.60;;;19.10;57.50;;;;;;5072061;28;20028;-75
2022/09/25 03:36:27;;;;;;;13.20;7.85;;;18.60;59.20;;;;;;5054968;28;20059;-80
2022/09/25 03:38:58;;;;;;;12.68;8.57;;;18.20;60.00;;;;;;5073264;28;20072;-84
2022/09/25 03:41:29;;;;;;;12.25;8.35;;;18.10;61.00;;;;;;5051365;28;20021;-82
2022/09/25 03:43:56;;;;;;;12.98;9.52;;;18.40;59.50;;;;;;5065223;28;20094;-76
2022/09/25 03:46:33;;;;;;;12.70;8.73;;;18.50;58.40;;;;;;5066966;28;20020;-85
2022/09/25 03:48:59;;;;;;;10.35;8.00;;;18.70;57.90;;;;;;5064352;28;20103;-83
2022/09/25 03:51:27;;;;;;;10.98;7.55;;;18.80;57.90;;;;;;5054548;28;20047;-86
2022/09/25 03:53:53;;;;;;;12.20;8.93;;;18.70;58.60;;;;;;5070999;28;20032;-79
2022/09/25 03:56:22;;;;;;;11.48;8.63;;;18.70;58.90;;;;;;5054660;28;20043;-82
2022/09/25 03:58:49;;;;;;;13.73;8.90;;;18.70;57.80;;;;;;5067499;28;20040;-77
2022/09/25 04:01:18;;;;;;;14.18;9.60;;;18.60;57.40;;;;;;5045294;28;20352;-76
2022/09/25 04:03:45;;;;;;;12.63;8.32;;;18.60;57.30;;;;;;5054455;28;20033;-84
2022/09/25 04:06:12;;;;;;;12.05;8.80;;;18.60;57.40;;;;;;5070907;28;20016;-77
2022/09/25 04:08:38;;;;;;;13.68;9.63;;;18.00;59.60;;;;;;5052806;28;20048;-84
2022/09/25 04:11:04;;;;;;;12.63;10.00;;;18.00;59.70;;;;;;5035815;28;20464;-81
2022/09/25 04:13:34;;;;;;;12.55;9.75;;;18.10;58.90;;;;;;5049589;28;20040;-79
2022/09/25 04:16:02;;;;;;;15.07;11.00;;;18.30;58.20;;;;;;5053540;28;20033;-76
2022/09/25 04:18:30;;;;;;;15.70;11.15;;;18.20;57.80;;;;;;5050917;28;20512;-84
2022/09/25 04:21:07;;;;;;;14.90;11.18;;;18.10;57.90;;;;;;5072847;28;20020;-76
2022/09/25 04:23:33;;;;;;;14.30;10.90;;;18.10;57.70;;;;;;5050402;28;20119;-76
2022/09/25 04:25:59;;;;;;;13.73;10.20;;;18.10;57.60;;;;;;5055297;28;20032;-77
2022/09/25 04:28:25;;;;;;;15.88;11.48;;;18.10;57.60;;;;;;5058003;28;20021;-78
2022/09/25 04:30:51;;;;;;;15.88;11.23;;;18.20;57.80;;;;;;5046972;28;20025;-81
2022/09/25 04:36:02;;;;;;;16.23;11.25;;;18.30;57.80;;;;;;5076380;28;20094;-83
2022/09/25 04:38:30;;;;;;;17.60;12.38;;;18.20;57.90;;;;;;5044562;28;20068;-82
2022/09/25 04:40:56;;;;;;;18.55;11.02;;;18.10;58.10;;;;;;5070845;28;20012;-82
2022/09/25 04:43:22;;;;;;;15.30;10.40;;;18.00;58.10;;;;;;5074533;28;20383;-77
2022/09/25 04:45:50;;;;;;;14.85;10.00;;;18.00;58.10;;;;;;5075162;28;20028;-78
2022/09/25 04:48:16;;;;;;;16.48;10.73;;;18.10;58.30;;;;;;5056337;28;20080;-77
2022/09/25 04:50:48;;;;;;;13.85;10.48;;;18.20;58.30;;;;;;5074776;28;20103;-76
2022/09/25 04:53:15;;;;;;;14.75;9.75;;;18.30;58.20;;;;;;5056161;28;20570;-76
2022/09/25 04:55:40;;;;;;;13.48;9.82;;;18.30;57.90;;;;;;5057430;28;20430;-75
2022/09/25 04:58:06;;;;;;;14.52;10.60;;;18.40;58.00;;;;;;5053440;28;20533;-82
2022/09/25 05:00:32;;;;;;;15.00;10.82;;;18.30;58.80;;;;;;5057521;28;20039;-76
2022/09/25 05:02:58;;;;;;;14.63;10.73;;;18.30;58.60;;;;;;5075417;28;20059;-83
2022/09/25 05:05:29;;;;;;;14.68;10.90;;;18.50;58.20;;;;;;5056314;28;20033;-76
2022/09/25 05:07:56;;;;;;;13.15;9.65;;;18.60;58.20;;;;;;5057570;28;20070;-76
2022/09/25 05:10:24;;;;;;;13.25;9.90;;;18.70;57.90;;;;;;5075716;28;20034;-76
2022/09/25 05:13:01;;;;;;;16.17;10.90;;;18.70;57.70;;;;;;5074472;28;20494;-76
2022/09/25 05:15:29;;;;;;;15.20;11.07;;;18.70;57.60;;;;;;5075823;28;20033;-76
2022/09/25 05:18:10;;;;;;;16.13;11.35;;;18.80;58.20;;;;;;5074440;28;20025;-77
2022/09/25 05:20:36;;;;;;;19.52;12.20;;;18.80;57.80;;;;;;5057204;28;20035;-76
2022/09/25 05:23:03;;;;;;;17.08;12.25;;;18.90;57.70;;;;;;5055956;28;20016;-76
2022/09/25 05:25:29;;;;;;;15.63;11.07;;;18.90;57.80;;;;;;5074227;28;20056;-76
2022/09/25 05:27:58;;;;;;;15.32;11.38;;;19.00;57.60;;;;;;5069423;28;20012;-82
2022/09/25 05:30:25;;;;;;;17.90;12.77;;;19.10;57.60;;;;;;5076419;28;20035;-78
2022/09/25 05:32:52;;;;;;;18.48;13.32;;;19.00;57.30;;;;;;5056556;28;20127;-76
2022/09/25 05:35:19;;;;;;;15.75;12.15;;;18.90;57.60;;;;;;5074369;28;20024;-77
2022/09/25 05:37:45;;;;;;;18.65;13.23;;;18.90;57.80;;;;;;5056958;28;20021;-83
2022/09/25 05:40:11;;;;;;;17.83;12.60;;;18.90;57.90;;;;;;5075594;28;20536;-82
2022/09/25 05:42:37;;;;;;;19.52;12.88;;;18.90;58.10;;;;;;5071241;28;20379;-76
2022/09/25 05:45:03;;;;;;;18.27;14.10;;;19.00;58.20;;;;;;5073200;28;20115;-77
2022/09/25 05:47:29;;;;;;;20.20;14.70;;;19.00;58.00;;;;;;5052337;28;20056;-76
2022/09/25 05:49:55;;;;;;;23.05;15.43;;;19.10;58.00;;;;;;5054766;28;20388;-77
2022/09/25 05:52:21;;;;;;;20.77;15.63;;;19.10;57.70;;;;;;5053704;28;20431;-76
2022/09/25 05:54:46;;;;;;;18.08;13.80;;;19.00;58.10;;;;;;5036779;28;20468;-76
2022/09/25 05:57:12;;;;;;;18.20;13.25;;;19.00;58.20;;;;;;5050036;28;20483;-85
2022/09/25 05:59:37;;;;;;;20.15;13.93;;;18.80;58.30;;;;;;5052308;28;20041;-81
2022/09/25 06:02:03;;;;;;;18.70;13.18;;;18.30;59.40;;;;;;5053443;28;20033;-82
2022/09/25 06:04:29;;;;;;;20.17;13.48;;;18.10;60.30;;;;;;5054773;28;20033;-81
2022/09/25 06:06:55;;;;;;;18.30;12.27;;;18.30;60.50;;;;;;5054130;28;20468;-82
2022/09/25 06:09:20;;;;;;;21.17;13.07;;;18.60;59.70;;;;;;5054233;28;20471;-78
2022/09/25 06:11:46;;;;;;;16.83;12.10;;;18.90;59.30;;;;;;4354386;28;10000762;-75
2022/09/25 06:14:15;;;;;;;18.90;14.07;;;19.10;58.90;;;;;;5052457;28;20044;-80
2022/09/25 06:16:41;;;;;;;21.75;14.93;;;19.40;58.70;;;;;;5051704;28;20025;-77
2022/09/25 06:19:07;;;;;;;20.48;14.93;;;19.50;58.50;;;;;;5051173;28;20044;-78
2022/09/25 06:21:33;;;;;;;17.00;12.50;;;19.70;58.30;;;;;;5050460;28;20029;-79
2022/09/25 06:23:59;;;;;;;17.23;13.50;;;19.80;58.10;;;;;;5049531;28;20033;-81
2022/09/25 06:26:25;;;;;;;19.77;14.35;;;19.90;58.20;;;;;;5049156;28;20112;-81
2022/09/25 06:28:51;;;;;;;18.90;13.90;;;20.10;58.20;;;;;;5047890;28;20067;-80
2022/09/25 06:31:16;;;;;;;15.50;13.18;;;20.20;58.30;;;;;;5048872;28;20021;-75
2022/09/25 06:33:42;;;;;;;16.27;12.27;;;20.30;58.30;;;;;;5046616;28;20090;-75
2022/09/25 06:36:08;;;;;;;15.70;10.90;;;20.50;58.20;;;;;;5049903;28;20025;-77
2022/09/25 06:38:34;;;;;;;15.65;11.57;;;20.20;57.70;;;;;;5051025;28;20429;-77
2022/09/25 06:40:59;;;;;;;15.30;11.10;;;19.60;59.60;;;;;;5051199;28;20028;-81
2022/09/25 06:43:26;;;;;;;15.35;11.32;;;19.30;60.20;;;;;;5050244;28;20028;-76
2022/09/25 06:45:51;;;;;;;15.10;10.35;;;19.30;60.00;;;;;;5047286;28;20079;-82
2022/09/25 06:48:17;;;;;;;21.95;13.60;;;19.10;60.50;;;;;;5049376;28;20057;-76
2022/09/25 06:50:51;;;;;;;19.13;12.75;;;18.90;60.90;;;;;;5046229;28;20055;-77
2022/09/25 06:53:18;;;;;;;17.27;11.57;;;19.20;61.30;;;;;;5051783;28;20102;-83
2022/09/25 06:55:45;;;;;;;17.75;10.93;;;19.80;60.50;;;;;;5047374;28;20021;-80
2022/09/25 06:58:13;;;;;;;17.83;11.70;;;20.30;59.50;;;;;;5048972;28;20075;-79
2022/09/25 07:00:39;;;;;;;13.68;10.07;;;20.70;59.00;;;;;;5049690;28;20447;-78
2022/09/25 07:05:49;;;;;;;14.40;9.98;;;21.30;58.00;;;;;;5051798;28;20051;-75
2022/09/25 07:08:18;;;;;;;12.65;9.07;;;21.40;57.70;;;;;;5050233;28;20033;-76
2022/09/25 07:10:55;;;;;;;11.52;8.63;;;21.50;57.30;;;;;;5048350;28;20029;-77
2022/09/25 07:13:30;;;;;;;14.90;9.57;;;21.70;57.00;;;;;;5037722;28;20144;-81
2022/09/25 07:16:00;;;;;;;14.45;9.77;;;21.60;56.70;;;;;;5045958;28;20477;-77
2022/09/25 07:18:27;;;;;;;;;;;21.60;57.30;;;;;;5038654;28;20048;-77
2022/09/25 07:20:59;;;;;;;21.52;9.63;;;21.60;56.70;;;;;;5049962;28;20072;-81
2022/09/25 07:23:24;;;;;;;12.25;8.75;;;21.60;56.70;;;;;;5042409;28;20094;-83
2022/09/25 07:25:50;;;;;;;17.42;9.40;;;21.70;56.60;;;;;;5044713;28;20372;-76
2022/09/25 07:28:18;;;;;;;14.02;9.20;;;21.60;56.50;;;;;;5048612;28;20029;-80
2022/09/25 07:30:44;;;;;;;11.77;9.23;;;21.70;56.50;;;;;;5034147;28;20025;-83
2022/09/25 07:33:10;;;;;;;12.40;8.50;;;21.70;56.60;;;;;;5049588;28;20059;-80
2022/09/25 07:35:37;;;;;;;11.13;8.80;;;21.70;56.70;;;;;;5051424;28;20033;-85
2022/09/25 07:38:03;;;;;;;10.93;8.20;;;21.50;57.00;;;;;;5053769;28;20028;-88
2022/09/25 07:40:30;;;;;;;10.65;8.40;;;21.50;57.10;;;;;;5053536;28;20033;-83
2022/09/25 07:43:00;;;;;;;12.50;8.48;;;21.60;56.70;;;;;;5053866;28;20025;-77
2022/09/25 07:45:26;;;;;;;10.95;8.30;;;21.50;56.60;;;;;;5051496;28;20075;-81
2022/09/25 07:48:00;;;;;;;12.60;8.10;;;20.90;57.90;;;;;;5051758;28;20045;-76
2022/09/25 07:50:30;;;;;;;13.23;8.57;;;21.00;58.00;;;;;;5051618;28;20124;-78
2022/09/25 07:52:56;;;;;;;11.45;8.05;;;21.30;57.50;;;;;;5050543;28;20029;-78
2022/09/25 07:55:22;;;;;;;12.05;8.15;;;21.60;57.10;;;;;;5048810;28;20388;-77
2022/09/25 07:57:49;;;;;;;11.55;8.65;;;21.70;56.50;;;;;;5051463;28;20021;-89
2022/09/25 08:00:15;;;;;;;9.75;7.68;;;21.40;56.70;;;;;;5051110;28;20028;-77
2022/09/25 08:02:41;;;;;;;11.95;7.93;;;21.10;57.50;;;;;;5050978;28;20021;-77
2022/09/25 08:05:08;;;;;;;10.77;8.18;;;21.00;57.70;;;;;;5051867;28;20025;-76
2022/09/25 08:07:33;;;;;;;9.77;7.85;;;20.90;58.70;;;;;;5052214;28;20029;-76
2022/09/25 08:09:59;;;;;;;10.75;8.32;;;21.10;58.40;;;;;;5051164;28;20040;-79
2022/09/25 08:12:25;;;;;;;14.70;8.55;;;21.50;58.00;;;;;;5052376;28;20040;-77
2022/09/25 08:14:52;;;;;;;11.02;8.13;;;21.80;57.00;;;;;;5050869;28;20025;-77
2022/09/25 08:17:21;;;;;;;11.75;8.88;;;22.20;56.40;;;;;;5051373;28;20021;-75
2022/09/25 08:19:47;;;;;;;12.90;8.98;;;22.20;56.30;;;;;;5052537;28;20033;-76
2022/09/25 08:22:12;;;;;;;11.63;8.40;;;22.50;56.10;;;;;;5051150;28;20029;-80
2022/09/25 08:24:38;;;;;;;11.77;8.23;;;22.60;55.70;;;;;;5051726;28;20051;-79
2022/09/25 08:27:06;;;;;;;11.82;8.60;;;22.20;56.40;;;;;;5050519;28;20029;-76
2022/09/25 08:29:32;;;;;;;11.27;8.70;;;22.10;57.00;;;;;;5051215;28;20025;-77
2022/09/25 08:31:58;;;;;;;10.55;8.10;;;22.50;56.70;;;;;;5052680;28;20100;-84
2022/09/25 08:34:23;;;;;;;9.55;7.88;;;22.60;56.40;;;;;;5052946;28;20461;-86
2022/09/25 08:36:49;;;;;;;9.88;8.52;;;22.00;56.70;;;;;;5051185;28;20029;-78
2022/09/25 08:39:16;;;;;;;15.13;9.63;;;21.60;58.00;;;;;;5051661;28;20033;-84
2022/09/25 08:41:49;;;;;;;10.75;8.30;;;21.60;58.40;;;;;;5052678;28;20048;-79
2022/09/25 08:44:38;;;;;;;20.27;8.60;;;21.90;57.40;;;;;;5052357;28;20052;-76
2022/09/25 08:50:11;;;;;;;14.43;8.68;;;21.30;58.40;;;;;;5073336;28;20391;-80
2022/09/25 08:52:41;;;;;;;10.95;8.43;;;21.40;58.40;;;;;;5072383;28;20024;-82
2022/09/25 08:58:28;;;;;;;11.03;8.07;;;21.50;58.60;;;;;;5072839;28;20288;-76
2022/09/25 09:01:07;;;;;;;10.32;8.20;;;21.80;57.90;;;;;;5054760;28;20390;-85
2022/09/25 09:03:40;;;;;;;10.85;7.72;;;21.90;57.60;;;;;;5055087;28;20510;-76
2022/09/25 09:06:13;;;;;;;13.90;9.73;;;21.90;57.60;;;;;;5054557;28;20521;-77
2022/09/25 09:08:41;;;;;;;13.15;9.02;;;21.90;57.00;;;;;;5072369;28;20557;-84
2022/09/25 09:11:10;;;;;;;14.60;8.32;;;21.70;58.40;;;;;;5072158;28;20417;-76
2022/09/25 09:13:47;;;;;;;10.65;8.30;;;22.00;58.00;;;;;;5073555;28;20021;-76
2022/09/25 09:16:30;;;;;;;14.65;9.48;;;22.30;57.50;;;;;;5076539;28;20048;-85
2022/09/25 09:18:56;;;;;;;12.18;8.02;;;22.30;57.10;;;;;;5053478;28;20032;-82
2022/09/25 09:21:31;;;;;;;10.90;9.13;;;22.40;56.70;;;;;;5076107;28;20090;-76
2022/09/25 09:24:26;;;;;;;11.27;8.25;;;22.60;56.80;;;;;;5076162;28;20028;-78
2022/09/25 09:27:11;;;;;;;12.82;8.90;;;22.30;57.00;;;;;;5076037;28;20407;-76
2022/09/25 09:29:41;;;;;;;10.85;9.45;;;22.50;56.70;;;;;;5057787;28;20107;-76
2022/09/25 09:32:44;;;;;;;11.40;8.43;;;23.00;56.10;;;;;;5075940;28;20020;-81
2022/09/25 09:35:19;;;;;;;11.00;8.65;;;23.10;55.60;;;;;;4720346;28;10000215;-76
2022/09/25 09:38:00;;;;;;;14.73;10.88;;;22.50;56.90;;;;;;5077918;28;20055;-77
2022/09/25 09:40:56;;;;;;;13.10;8.80;;;22.70;57.10;;;;;;5095377;28;20026;-83
2022/09/25 09:43:27;;;;;;;10.63;7.93;;;23.10;56.20;;;;;;5077783;28;20430;-82
2022/09/25 09:45:57;;;;;;;16.02;9.68;;;23.40;56.00;;;;;;5079513;28;20111;-79
2022/09/25 09:48:36;;;;;;;10.27;7.85;;;23.50;55.90;;;;;;5055578;28;20052;-77
2022/09/25 09:51:29;;;;;;;10.52;7.68;;;23.70;55.30;;;;;;5075125;28;20035;-77
2022/09/25 09:54:15;;;;;;;11.10;7.85;;;23.90;55.20;;;;;;5056336;28;20025;-78
2022/09/25 09:56:46;;;;;;;11.20;8.60;;;23.50;55.50;;;;;;5074797;28;20074;-82
2022/09/25 09:59:18;;;;;;;10.45;8.32;;;23.30;56.20;;;;;;5073996;28;20039;-76
2022/09/25 10:01:48;;;;;;;12.90;8.10;;;23.70;55.70;;;;;;5074438;28;20063;-76
2022/09/25 10:04:21;;;;;;;11.85;8.48;;;23.80;55.50;;;;;;5075515;28;20368;-85
2022/09/25 10:06:56;;;;;;;11.25;7.68;;;23.60;55.50;;;;;;5075215;28;20024;-77
2022/09/25 10:09:24;;;;;;;11.48;8.45;;;23.00;56.20;;;;;;5057178;28;20021;-76
2022/09/25 10:11:58;;;;;;;18.30;9.32;;;22.70;57.50;;;;;;5057654;28;20025;-86
2022/09/25 10:14:31;;;;;;;13.98;8.55;;;22.70;57.60;;;;;;5057429;28;20032;-77
2022/09/25 10:16:57;;;;;;;12.60;9.27;;;22.70;57.60;;;;;;5056985;28;20082;-78
2022/09/25 10:19:28;;;;;;;13.75;9.20;;;22.50;58.00;;;;;;5074903;28;20036;-76
2022/09/25 10:22:05;;;;;;;13.50;9.43;;;22.40;58.10;;;;;;5056990;28;20075;-80
2022/09/25 10:24:57;;;;;;;14.77;9.70;;;22.50;57.80;;;;;;5056081;28;20020;-77
2022/09/25 10:27:30;;;;;;;15.93;9.13;;;22.50;57.90;;;;;;5074735;28;20020;-89
2022/09/25 10:30:08;;;;;;;13.52;9.32;;;22.30;58.30;;;;;;5075162;28;20029;-78
2022/09/25 10:32:49;;;;;;;14.10;8.95;;;22.20;58.40;;;;;;5074234;28;20442;-78
2022/09/25 10:35:18;;;;;;;13.73;8.50;;;22.30;58.70;;;;;;5056312;28;20036;-84
2022/09/25 10:37:49;;;;;;;10.98;8.68;;;22.60;58.20;;;;;;5056410;28;20086;-78
2022/09/25 10:40:36;;;;;;;10.45;8.23;;;22.80;57.60;;;;;;5056041;28;20033;-79
2022/09/25 10:43:13;;;;;;;10.90;8.52;;;23.10;57.30;;;;;;5056845;28;20020;-77
2022/09/25 10:45:39;;;;;;;15.07;10.10;;;23.20;57.10;;;;;;5074505;28;20100;-77
2022/09/25 10:51:20;;;;;;;12.10;8.40;;;23.40;57.60;;;;;;5074379;28;20047;-76
2022/09/25 10:53:51;;;;;;;11.77;8.98;;;23.60;56.50;;;;;;5073848;28;20147;-78
2022/09/25 10:56:26;;;;;;;11.85;8.85;;;23.80;56.10;;;;;;5073947;28;20063;-76
2022/09/25 10:58:53;;;;;;;11.30;8.80;;;24.00;56.10;;;;;;5055705;28;20064;-81
2022/09/25 11:01:27;;;;;;;11.32;8.32;;;23.90;56.20;;;;;;5073918;28;20028;-79
2022/09/25 11:03:56;;;;;;;11.50;8.30;;;23.70;56.50;;;;;;5073808;28;20028;-79
2022/09/25 11:06:23;;;;;;;15.82;8.73;;;23.60;57.60;;;;;;5073394;28;20028;-77
2022/09/25 11:09:13;;;;;;;10.88;8.52;;;23.40;57.10;;;;;;5073743;28;20029;-78
2022/09/25 11:11:39;;;;;;;9.57;7.90;;;23.50;58.10;;;;;;5056401;28;20094;-76
2022/09/25 11:14:18;;;;;;;12.95;8.32;;;23.80;57.30;;;;;;5073744;28;20151;-76
2022/09/25 11:16:51;;;;;;;12.75;8.32;;;23.90;56.80;;;;;;5055600;28;20036;-77
2022/09/25 11:19:24;;;;;;;14.43;9.20;;;23.80;57.30;;;;;;5055605;28;20487;-77
2022/09/25 11:22:17;;;;;;;12.45;9.10;;;23.60;57.80;;;;;;5073355;28;20033;-76
2022/09/25 11:24:51;;;;;;;10.50;7.93;;;23.60;57.90;;;;;;5055415;28;20032;-76
2022/09/25 11:27:20;;;;;;;10.75;8.55;;;23.60;58.00;;;;;;5073257;28;20383;-76
2022/09/25 11:30:17;;;;;;;11.38;8.73;;;23.70;57.80;;;;;;5055208;28;20021;-78
2022/09/25 11:33:04;;;;;;;10.93;8.18;;;23.70;57.90;;;;;;5074076;28;20467;-80
2022/09/25 11:35:55;;;;;;;11.90;8.35;;;23.50;58.20;;;;;;5055962;28;20365;-77
2022/09/25 11:41:44;;;;;;;11.05;8.00;;;23.90;57.60;;;;;;5073444;28;20087;-76
2022/09/25 11:44:30;;;;;;;9.93;7.60;;;23.70;57.20;;;;;;5073124;28;20020;-77
2022/09/25 11:47:11;;;;;;;10.70;7.00;;;23.60;57.80;;;;;;5073722;28;20379;-76
2022/09/25 11:49:39;;;;;;;10.45;8.50;;;23.50;58.30;;;;;;5055342;28;20032;-78
2022/09/25 11:52:15;;;;;;;12.18;8.52;;;23.70;58.40;;;;;;5073392;28;20027;-91
2022/09/25 11:54:58;;;;;;;11.07;8.60;;;24.10;58.00;;;;;;5055535;28;20035;-92
2022/09/25 11:57:30;;;;;;;12.77;8.48;;;24.30;57.50;;;;;;5075947;28;20074;-80
2022/09/25 12:00:19;;;;;;;11.57;9.32;;;24.40;57.70;;;;;;5079477;28;20068;-93
2022/09/25 12:03:13;;;;;;;11.85;9.93;;;24.30;57.90;;;;;;5055055;28;20024;-77
2022/09/25 12:05:57;;;;;;;12.73;8.90;;;23.80;58.80;;;;;;4971933;28;20526;-78
2022/09/25 12:08:31;;;;;;;11.60;9.18;;;23.50;59.20;;;;;;4971742;28;20031;-77
2022/09/25 12:11:15;;;;;;;13.35;10.15;;;23.50;60.10;;;;;;4971947;28;20031;-78
2022/09/25 12:14:04;;;;;;;11.60;9.07;;;23.80;59.90;;;;;;4971722;28;20074;-77
2022/09/25 12:16:57;;;;;;;14.57;10.02;;;24.00;60.30;;;;;;4972426;28;20031;-77
2022/09/25 12:19:41;;;;;;;15.93;11.75;;;24.20;59.50;;;;;;4971944;28;20406;-78
2022/09/25 12:22:14;;;;;;;13.60;10.73;;;24.00;60.40;;;;;;4971511;28;20027;-79
2022/09/25 12:25:07;;;;;;;12.60;10.40;;;23.60;61.60;;;;;;4972047;28;20126;-79
2022/09/25 12:27:57;;;;;;;15.80;10.15;;;23.00;62.70;;;;;;4971922;28;20033;-78
2022/09/25 12:30:29;;;;;;;13.82;9.30;;;22.60;64.10;;;;;;4971843;28;20033;-78
2022/09/25 12:33:13;;;;;;;10.90;7.90;;;22.50;64.10;;;;;;4971945;28;20023;-79
2022/09/25 12:35:46;;;;;;;11.52;8.02;;;22.40;64.80;;;;;;4972224;28;20481;-80
2022/09/25 12:38:11;;;;;;;9.93;7.30;;;22.20;65.70;;;;;;4972325;28;20031;-85
2022/09/25 12:40:54;;;;;;;10.70;7.75;;;21.90;65.70;;;;;;4972517;28;20077;-80
2022/09/25 12:43:27;;;;;;;10.23;7.50;;;21.50;67.50;;;;;;5054885;28;20075;-81
2022/09/25 12:46:08;;;;;;;10.75;7.82;;;21.30;68.00;;;;;;5055264;28;20024;-82
2022/09/25 12:48:50;;;;;;;9.80;7.47;;;21.10;68.70;;;;;;5073583;28;20051;-80
2022/09/25 12:51:41;;;;;;;9.95;8.00;;;21.00;69.10;;;;;;5059026;28;20024;-80
2022/09/25 12:54:31;;;;;;;13.55;9.48;;;20.70;70.50;;;;;;5076828;28;20028;-79
2022/09/25 12:57:03;;;;;;;12.53;8.43;;;20.70;70.00;;;;;;5059180;28;20426;-80
2022/09/25 12:59:47;;;;;;;13.98;9.32;;;20.60;71.00;;;;;;5076856;28;20036;-80
2022/09/25 13:02:44;;;;;;;12.07;9.48;;;20.70;71.10;;;;;;5076572;28;20095;-80
2022/09/25 13:05:20;;;;;;;14.82;11.15;;;21.00;70.80;;;;;;5058828;28;20033;-80
2022/09/25 13:08:23;;;;;;;13.35;10.05;;;21.30;69.70;;;;;;5059043;28;20024;-80
2022/09/25 13:11:16;;;;;;;12.93;10.13;;;21.50;69.20;;;;;;5075477;28;20020;-81
2022/09/25 13:13:47;;;;;;;12.23;8.90;;;21.90;68.30;;;;;;5058386;28;20078;-80
2022/09/25 13:16:15;;;;;;;;;;;22.10;67.60;;;;;;5058896;28;20028;-80
2022/09/25 13:19:08;;;;;;;13.25;10.50;;;22.30;67.80;;;;;;5058172;28;20278;-79
2022/09/25 13:21:44;;;;;;;14.77;11.63;;;22.40;67.10;;;;;;5075751;28;20379;-80